createdAt,value
2023-04-14T00:00:08.845Z,0.23
2023-04-14T00:02:11.598Z,0.25
2023-04-14T00:04:16.764Z,0.23
2023-04-14T00:06:19.720Z,0.20
2023-04-14T00:08:22.624Z,0.11
2023-04-14T00:10:25.970Z,0.05
2023-04-14T00:12:28.715Z,0.00
2023-04-14T00:14:31.620Z,0.01
2023-04-14T00:16:35.318Z,-0.03
2023-04-14T00:18:38.553Z,-0.03
2023-04-14T00:20:41.426Z,-0.08
2023-04-14T00:22:44.133Z,-0.12
2023-04-14T00:24:47.011Z,-0.13
2023-04-14T00:26:50.367Z,-0.18
2023-04-14T00:28:53.020Z,-0.18
2023-04-14T00:30:55.889Z,-0.20
2023-04-14T00:32:58.776Z,-0.21
2023-04-14T00:35:03.613Z,-0.27
2023-04-14T00:37:06.417Z,-0.34
2023-04-14T00:39:08.957Z,-0.33
2023-04-14T00:41:11.592Z,-0.33
2023-04-14T00:43:18.935Z,-0.38
2023-04-14T00:45:21.590Z,-0.41
2023-04-14T00:47:24.390Z,-0.46
2023-04-14T00:49:27.314Z,-0.46
2023-04-14T00:51:30.049Z,-0.50
2023-04-14T00:53:33.349Z,-0.50
2023-04-14T00:55:36.506Z,-0.54
2023-04-14T00:57:40.558Z,-0.54
2023-04-14T00:59:43.249Z,-0.54
2023-04-14T01:01:46.390Z,-0.58
2023-04-14T01:03:49.287Z,-0.62
2023-04-14T01:05:52.173Z,-0.63
2023-04-14T01:07:55.121Z,-0.67
2023-04-14T01:09:58.405Z,-0.69
2023-04-14T01:12:26.751Z,-0.71
2023-04-14T01:14:42.725Z,-0.69
2023-04-14T01:16:49.892Z,-0.73
2023-04-14T01:18:56.433Z,-0.74
2023-04-14T01:21:08.321Z,-0.71
2023-04-14T01:23:21.587Z,-0.74
2023-04-14T01:25:36.910Z,-0.82
2023-04-14T01:28:12.871Z,-0.83
2023-04-14T01:30:52.866Z,-0.87
2023-04-14T01:33:01.622Z,-0.88
2023-04-14T01:35:13.350Z,-0.86
2023-04-14T01:37:30.410Z,-0.94
2023-04-14T01:39:41.435Z,-0.94
2023-04-14T01:41:48.918Z,-0.96
2023-04-14T01:43:55.947Z,-0.98
2023-04-14T01:46:05.342Z,-0.95
2023-04-14T01:48:09.336Z,-1.01
2023-04-14T01:50:13.703Z,-1.09
2023-04-14T01:52:17.716Z,-1.11
2023-04-14T01:54:21.997Z,-1.12
2023-04-14T01:56:26.184Z,-1.08
2023-04-14T01:58:31.445Z,-1.12
2023-04-14T02:00:36.688Z,-1.14
2023-04-14T02:02:41.857Z,-1.18
2023-04-14T02:04:46.052Z,-1.18
2023-04-14T02:06:51.569Z,-1.21
2023-04-14T02:08:54.827Z,-1.19
2023-04-14T02:10:59.704Z,-1.23
2023-04-14T02:13:05.190Z,-1.20
2023-04-14T02:15:13.841Z,-1.24
2023-04-14T02:17:18.879Z,-1.23
2023-04-14T02:19:23.210Z,-1.23
2023-04-14T02:21:26.740Z,-1.22
2023-04-14T02:23:29.573Z,-1.21
2023-04-14T02:25:35.396Z,-1.19
2023-04-14T02:27:56.537Z,-1.24
2023-04-14T02:30:03.196Z,-1.20
2023-04-14T02:32:11.830Z,-1.25
2023-04-14T02:34:16.103Z,-1.24
2023-04-14T02:36:22.907Z,-1.30
2023-04-14T02:38:36.917Z,-1.32
2023-04-14T02:40:42.312Z,-1.30
2023-04-14T02:42:48.358Z,-1.28
2023-04-14T02:45:02.192Z,-1.30
2023-04-14T02:47:09.772Z,-1.28
2023-04-14T02:49:16.755Z,-1.28
2023-04-14T02:51:21.471Z,-1.27
2023-04-14T02:53:25.786Z,-1.24
2023-04-14T02:55:31.903Z,-1.25
2023-04-14T02:57:35.779Z,-1.26
2023-04-14T02:59:40.521Z,-1.26
2023-04-14T03:01:45.731Z,-1.22
2023-04-14T03:03:50.435Z,-1.25
2023-04-14T03:05:53.561Z,-1.28
2023-04-14T03:07:56.865Z,-1.33
2023-04-14T03:10:00.906Z,-1.27
2023-04-14T03:12:05.003Z,-1.23
2023-04-14T03:14:07.971Z,-1.29
2023-04-14T03:16:11.457Z,-1.24
2023-04-14T03:18:15.094Z,-1.18
2023-04-14T03:20:20.362Z,-1.22
2023-04-14T03:22:26.957Z,-1.22
2023-04-14T03:24:32.930Z,-1.16
2023-04-14T03:26:37.921Z,-1.15
2023-04-14T03:28:43.031Z,-1.15
2023-04-14T03:30:49.798Z,-1.16
2023-04-14T03:32:54.547Z,-1.14
2023-04-14T03:34:59.417Z,-1.11
2023-04-14T03:37:04.580Z,-1.12
2023-04-14T03:39:15.790Z,-1.09
2023-04-14T03:41:31.300Z,-1.05
2023-04-14T03:43:44.050Z,-1.03
2023-04-14T03:45:50.336Z,-1.00
2023-04-14T03:47:58.070Z,-1.02
2023-04-14T03:50:05.128Z,-1.00
2023-04-14T03:52:11.128Z,-0.96
2023-04-14T03:54:16.874Z,-0.98
2023-04-14T03:56:20.357Z,-0.93
2023-04-14T03:58:25.044Z,-0.97
2023-04-14T04:00:29.366Z,-1.00
2023-04-14T04:02:32.909Z,-0.99
2023-04-14T04:04:37.016Z,-0.99
2023-04-14T04:06:41.109Z,-0.95
2023-04-14T04:08:47.484Z,-0.93
2023-04-14T04:10:51.702Z,-0.94
2023-04-14T04:12:58.282Z,-0.93
2023-04-14T04:15:01.535Z,-0.95
2023-04-14T04:17:08.591Z,-0.90
2023-04-14T04:19:14.449Z,-0.89
2023-04-14T04:21:18.840Z,-0.80
2023-04-14T04:23:23.039Z,-0.75
2023-04-14T04:25:25.879Z,-0.70
2023-04-14T04:27:29.407Z,-0.65
2023-04-14T04:29:32.435Z,-0.63
2023-04-14T04:31:36.051Z,-0.62
2023-04-14T04:33:39.197Z,-0.54
2023-04-14T04:35:42.753Z,-0.56
2023-04-14T04:37:46.454Z,-0.54
2023-04-14T04:39:49.374Z,-0.55
2023-04-14T04:42:01.623Z,-0.52
2023-04-14T04:44:04.367Z,-0.47
2023-04-14T04:46:26.003Z,-0.41
2023-04-14T04:48:28.673Z,-0.50
2023-04-14T04:50:31.323Z,-0.51
2023-04-14T04:52:33.958Z,-0.51
2023-04-14T04:54:36.609Z,-0.51
2023-04-14T04:56:39.312Z,-0.52
2023-04-14T04:58:41.955Z,-0.58
2023-04-14T05:00:44.542Z,-0.59
2023-04-14T05:02:47.341Z,-0.58
2023-04-14T05:04:50.129Z,-0.62
2023-04-14T05:06:52.922Z,-0.63
2023-04-14T05:08:56.234Z,-0.69
2023-04-14T05:10:58.821Z,-0.68
2023-04-14T05:13:01.593Z,-0.62
2023-04-14T05:15:04.664Z,-0.60
2023-04-14T05:17:07.480Z,-0.54
2023-04-14T05:19:10.198Z,-0.51
2023-04-14T05:21:14.361Z,-0.44
2023-04-14T05:23:17.191Z,-0.40
2023-04-14T05:25:20.029Z,-0.44
2023-04-14T05:27:22.629Z,-0.45
2023-04-14T05:29:25.517Z,-0.46
2023-04-14T05:31:28.231Z,-0.50
2023-04-14T05:33:31.227Z,-0.45
2023-04-14T05:35:33.835Z,-0.43
2023-04-14T05:37:36.520Z,-0.41
2023-04-14T05:39:39.202Z,-0.33
2023-04-14T05:41:41.897Z,-0.39
2023-04-14T05:43:44.536Z,-0.35
2023-04-14T05:45:49.862Z,-0.23
2023-04-14T05:47:52.518Z,-0.19
2023-04-14T05:49:55.265Z,-0.13
2023-04-14T05:51:57.860Z,-0.08
2023-04-14T05:54:00.767Z,-0.04
2023-04-14T05:56:03.875Z,-0.03
2023-04-14T05:58:06.450Z,-0.03
2023-04-14T06:00:10.789Z,-0.02
2023-04-14T06:02:13.675Z,0.05
2023-04-14T06:04:16.598Z,0.12
2023-04-14T06:06:22.216Z,0.13
2023-04-14T06:08:25.571Z,0.21
2023-04-14T06:10:28.176Z,0.30
2023-04-14T06:12:30.815Z,0.33
2023-04-14T06:14:33.513Z,0.37
2023-04-14T06:16:36.218Z,0.44
2023-04-14T06:18:38.782Z,0.49
2023-04-14T06:20:41.544Z,0.47
2023-04-14T06:22:44.185Z,0.51
2023-04-14T06:24:47.015Z,0.60
2023-04-14T06:26:49.658Z,0.66
2023-04-14T06:28:52.370Z,0.77
2023-04-14T06:30:55.134Z,0.80
2023-04-14T06:32:57.997Z,0.82
2023-04-14T06:35:01.209Z,0.89
2023-04-14T06:37:05.947Z,0.97
2023-04-14T06:39:08.603Z,1.07
2023-04-14T06:41:11.575Z,1.16
2023-04-14T06:43:15.252Z,1.24
2023-04-14T06:45:17.860Z,1.29
2023-04-14T06:47:24.680Z,1.37
2023-04-14T06:49:27.438Z,1.46
2023-04-14T06:51:30.987Z,1.61
2023-04-14T06:53:33.607Z,1.62
2023-04-14T06:55:36.521Z,1.66
2023-04-14T06:57:39.144Z,1.72
2023-04-14T06:59:42.137Z,1.76
2023-04-14T07:01:44.970Z,1.73
2023-04-14T07:03:47.801Z,1.79
2023-04-14T07:05:50.878Z,1.80
2023-04-14T07:07:53.530Z,1.82
2023-04-14T07:09:56.199Z,1.87
2023-04-14T07:11:59.356Z,1.97
2023-04-14T07:14:02.469Z,2.00
2023-04-14T07:16:09.024Z,2.03
2023-04-14T07:18:11.924Z,2.09
2023-04-14T07:20:14.576Z,2.15
2023-04-14T07:22:17.821Z,2.21
2023-04-14T07:24:20.600Z,2.23
2023-04-14T07:26:23.166Z,2.29
2023-04-14T07:28:27.272Z,2.35
2023-04-14T07:30:30.174Z,2.38
2023-04-14T07:32:33.297Z,2.38
2023-04-14T07:34:36.236Z,2.48
2023-04-14T07:36:40.041Z,2.56
2023-04-14T07:38:44.023Z,2.59
2023-04-14T07:40:46.932Z,2.60
2023-04-14T07:42:49.761Z,2.67
2023-04-14T07:44:52.404Z,2.71
2023-04-14T07:46:55.228Z,2.68
2023-04-14T07:48:58.004Z,2.73
2023-04-14T07:51:01.183Z,2.83
2023-04-14T07:53:04.125Z,2.86
2023-04-14T07:55:07.110Z,2.88
2023-04-14T07:57:11.024Z,3.00
2023-04-14T07:59:13.659Z,3.06
2023-04-14T08:01:17.319Z,3.09
2023-04-14T08:03:20.315Z,3.11
2023-04-14T08:05:23.187Z,3.13
2023-04-14T08:07:28.869Z,3.28
2023-04-14T08:09:31.506Z,3.41
2023-04-14T08:11:34.209Z,3.44
2023-04-14T08:13:36.897Z,3.32
2023-04-14T08:15:39.562Z,3.37
2023-04-14T08:17:42.545Z,3.44
2023-04-14T08:19:45.348Z,3.54
2023-04-14T08:21:48.019Z,3.54
2023-04-14T08:23:50.721Z,3.66
2023-04-14T08:25:53.447Z,3.68
2023-04-14T08:27:56.247Z,3.69
2023-04-14T08:29:58.847Z,3.67
2023-04-14T08:32:01.913Z,3.69
2023-04-14T08:34:04.678Z,3.67
2023-04-14T08:36:07.693Z,3.72
2023-04-14T08:38:10.554Z,3.82
2023-04-14T08:40:16.037Z,3.85
2023-04-14T08:42:21.734Z,3.90
2023-04-14T08:44:24.462Z,3.93
2023-04-14T08:46:28.458Z,3.96
2023-04-14T08:48:32.323Z,3.98
2023-04-14T08:50:43.306Z,4.01
2023-04-14T08:52:47.869Z,4.07
2023-04-14T08:54:53.833Z,4.21
2023-04-14T08:56:59.663Z,4.31
2023-04-14T08:59:02.745Z,4.31
2023-04-14T09:01:05.590Z,4.40
2023-04-14T09:03:09.603Z,4.45
2023-04-14T09:05:13.858Z,4.55
2023-04-14T09:07:16.948Z,4.56
2023-04-14T09:09:19.712Z,4.58
2023-04-14T09:11:23.461Z,4.56
2023-04-14T09:13:28.678Z,4.56
2023-04-14T09:15:31.578Z,4.58
2023-04-14T09:17:36.794Z,4.63
2023-04-14T09:20:35.322Z,4.68
2023-04-14T09:22:02.703Z,4.64
2023-04-14T09:24:06.366Z,4.61
2023-04-14T09:26:09.467Z,4.65
2023-04-14T09:28:12.597Z,4.70
2023-04-14T09:30:17.848Z,4.64
2023-04-14T09:32:22.390Z,4.68
2023-04-14T09:34:25.484Z,4.77
2023-04-14T09:36:29.328Z,4.84
2023-04-14T09:38:39.578Z,4.92
2023-04-14T09:40:47.667Z,4.99
2023-04-14T09:42:50.611Z,5.09
2023-04-14T09:44:55.139Z,5.03
2023-04-14T09:47:06.186Z,4.95
2023-04-14T09:49:09.029Z,4.90
2023-04-14T09:51:11.897Z,4.94
2023-04-14T09:53:14.538Z,5.01
2023-04-14T09:55:17.507Z,5.03
2023-04-14T09:57:26.911Z,5.05
2023-04-14T09:59:32.848Z,4.97
2023-04-14T10:01:36.967Z,5.01
2023-04-14T10:03:40.937Z,5.09
2023-04-14T10:05:48.105Z,5.01
2023-04-14T10:07:51.389Z,5.07
2023-04-14T10:09:54.145Z,5.05
2023-04-14T10:12:18.343Z,5.04
2023-04-14T10:14:21.097Z,5.07
2023-04-14T10:16:24.746Z,5.10
2023-04-14T10:18:27.572Z,5.18
2023-04-14T10:20:31.314Z,5.18
2023-04-14T10:22:34.088Z,5.15
2023-04-14T10:24:37.481Z,5.25
2023-04-14T10:26:42.741Z,5.28
2023-04-14T10:28:48.275Z,5.18
2023-04-14T10:30:56.658Z,5.19
2023-04-14T10:32:59.594Z,5.35
2023-04-14T10:35:05.915Z,5.45
2023-04-14T10:37:16.235Z,5.50
2023-04-14T10:39:24.659Z,5.56
2023-04-14T10:41:27.951Z,5.63
2023-04-14T10:43:30.785Z,5.60
2023-04-14T10:45:33.458Z,5.67
2023-04-14T10:47:40.703Z,5.78
2023-04-14T10:49:44.618Z,5.77
2023-04-14T10:51:49.803Z,5.75
2023-04-14T10:53:55.859Z,5.79
2023-04-14T10:56:03.247Z,5.83
2023-04-14T10:58:06.752Z,5.79
2023-04-14T11:00:22.298Z,5.78
2023-04-14T11:02:28.551Z,5.74
2023-04-14T11:04:32.113Z,5.83
2023-04-14T11:07:00.257Z,6.02
2023-04-14T11:09:21.886Z,6.07
2023-04-14T11:11:29.510Z,6.17
2023-04-14T11:13:34.949Z,6.19
2023-04-14T11:16:02.549Z,6.16
2023-04-14T11:18:16.237Z,6.16
2023-04-14T11:20:21.388Z,6.14
2023-04-14T11:22:46.012Z,6.20
2023-04-14T11:24:49.035Z,6.23
2023-04-14T11:26:53.751Z,6.26
2023-04-14T11:28:56.947Z,6.39
2023-04-14T11:31:01.459Z,6.59
2023-04-14T11:33:04.281Z,6.68
2023-04-14T11:35:10.174Z,6.78
2023-04-14T11:37:12.862Z,6.80
2023-04-14T11:39:16.452Z,6.85
2023-04-14T11:41:20.563Z,6.91
2023-04-14T11:43:24.230Z,6.89
2023-04-14T11:45:31.156Z,6.93
2023-04-14T11:47:33.966Z,6.89
2023-04-14T11:49:37.388Z,6.98
2023-04-14T11:51:40.531Z,7.11
2023-04-14T11:53:43.564Z,7.16
2023-04-14T11:55:50.960Z,7.04
2023-04-14T11:57:55.307Z,7.06
2023-04-14T11:59:58.110Z,7.08
2023-04-14T12:02:04.048Z,7.17
2023-04-14T12:04:07.988Z,7.35
2023-04-14T12:06:10.938Z,7.38
2023-04-14T12:08:14.032Z,7.32
2023-04-14T12:10:16.954Z,7.33
2023-04-14T12:12:20.391Z,7.36
2023-04-14T12:14:23.233Z,7.28
2023-04-14T12:16:26.874Z,7.38
2023-04-14T12:18:29.717Z,7.47
2023-04-14T12:20:48.780Z,7.52
2023-04-14T12:22:52.027Z,7.59
2023-04-14T12:24:56.452Z,7.55
2023-04-14T12:26:59.080Z,7.55
2023-04-14T12:29:02.530Z,7.56
2023-04-14T12:31:05.539Z,7.67
2023-04-14T12:33:12.606Z,7.83
2023-04-14T12:35:15.522Z,7.89
2023-04-14T12:37:23.856Z,7.90
2023-04-14T12:39:27.774Z,7.91
2023-04-14T12:41:30.553Z,7.93
2023-04-14T12:43:35.713Z,8.06
2023-04-14T12:45:49.007Z,8.16
2023-04-14T12:47:54.125Z,8.32
2023-04-14T12:49:58.731Z,8.45
2023-04-14T12:52:01.489Z,8.37
2023-04-14T12:54:08.472Z,8.41
2023-04-14T12:56:22.530Z,8.34
2023-04-14T12:58:29.904Z,8.59
2023-04-14T13:00:32.608Z,8.71
2023-04-14T13:02:36.707Z,8.82
2023-04-14T13:04:40.006Z,8.76
2023-04-14T13:06:42.826Z,8.64
2023-04-14T13:08:49.118Z,8.71
2023-04-14T13:10:51.766Z,8.70
2023-04-14T13:12:54.364Z,8.73
2023-04-14T13:14:57.367Z,8.69
2023-04-14T13:17:00.132Z,8.62
2023-04-14T13:19:03.147Z,8.57
2023-04-14T13:21:07.039Z,8.55
2023-04-14T13:23:09.730Z,8.70
2023-04-14T13:25:12.419Z,8.82
2023-04-14T13:27:19.382Z,8.95
2023-04-14T13:29:22.115Z,9.02
2023-04-14T13:31:24.858Z,9.00
2023-04-14T13:33:27.952Z,8.99
2023-04-14T13:35:30.797Z,8.83
2023-04-14T13:37:33.454Z,8.72
2023-04-14T13:39:36.166Z,8.60
2023-04-14T13:41:38.841Z,8.59
2023-04-14T13:43:41.851Z,8.68
2023-04-14T13:45:44.857Z,8.82
2023-04-14T13:47:49.262Z,8.78
2023-04-14T13:49:51.981Z,8.76
2023-04-14T13:51:54.748Z,8.48
2023-04-14T13:53:57.876Z,8.43
2023-04-14T13:56:01.259Z,8.65
2023-04-14T13:58:03.953Z,8.75
2023-04-14T14:00:09.600Z,8.80
2023-04-14T14:02:12.589Z,8.86
2023-04-14T14:04:15.633Z,8.84
2023-04-14T14:06:19.355Z,8.88
2023-04-14T14:08:22.434Z,8.87
2023-04-14T14:10:25.115Z,8.72
2023-04-14T14:12:27.836Z,8.57
2023-04-14T14:14:30.516Z,8.58
2023-04-14T14:16:37.249Z,8.61
2023-04-14T14:18:41.852Z,8.56
2023-04-14T14:20:44.639Z,8.65
2023-04-14T14:22:48.080Z,8.63
2023-04-14T14:24:50.728Z,8.62
2023-04-14T14:26:53.375Z,8.68
2023-04-14T14:28:56.228Z,8.65
2023-04-14T14:30:58.912Z,8.56
2023-04-14T14:33:01.613Z,8.64
2023-04-14T14:35:04.795Z,8.42
2023-04-14T14:37:07.473Z,8.04
2023-04-14T14:39:10.213Z,7.82
2023-04-14T14:41:12.996Z,7.71
2023-04-14T14:43:16.217Z,7.60
2023-04-14T14:45:26.244Z,7.46
2023-04-14T14:47:33.893Z,7.35
2023-04-14T14:49:39.369Z,7.24
2023-04-14T14:51:48.468Z,7.09
2023-04-14T14:53:57.157Z,7.06
2023-04-14T14:56:04.345Z,7.08
2023-04-14T14:58:08.644Z,7.11
2023-04-14T15:00:11.800Z,7.05
2023-04-14T15:02:14.920Z,7.00
2023-04-14T15:04:17.700Z,6.99
2023-04-14T15:06:20.970Z,6.87
2023-04-14T15:08:24.292Z,6.62
2023-04-14T15:10:27.430Z,6.32
2023-04-14T15:12:30.524Z,6.00
2023-04-14T15:14:33.296Z,5.56
2023-04-14T15:16:36.103Z,5.26
2023-04-14T15:18:38.697Z,5.04
2023-04-14T15:20:42.897Z,4.80
2023-04-14T15:22:45.715Z,4.55
2023-04-14T15:24:48.909Z,4.39
2023-04-14T15:26:52.165Z,4.32
2023-04-14T15:28:55.719Z,4.21
2023-04-14T15:31:01.478Z,4.10
2023-04-14T15:33:04.300Z,4.01
2023-04-14T15:35:07.264Z,3.84
2023-04-14T15:37:09.927Z,3.68
2023-04-14T15:39:12.571Z,3.57
2023-04-14T15:41:15.279Z,3.50
2023-04-14T15:43:17.910Z,3.48
2023-04-14T15:45:21.753Z,3.41
2023-04-14T15:47:24.625Z,3.27
2023-04-14T15:49:27.352Z,3.16
2023-04-14T15:51:30.886Z,3.06
2023-04-14T15:53:33.652Z,3.09
2023-04-14T15:55:36.952Z,2.99
2023-04-14T15:57:39.599Z,2.96
2023-04-14T15:59:42.406Z,2.90
2023-04-14T16:01:45.256Z,2.83
2023-04-14T16:03:50.409Z,2.77
2023-04-14T16:06:02.673Z,2.61
2023-04-14T16:08:06.239Z,2.56
2023-04-14T16:10:09.356Z,2.51
2023-04-14T16:12:12.230Z,2.44
2023-04-14T16:14:14.958Z,2.39
2023-04-14T16:16:18.019Z,2.32
2023-04-14T16:18:20.770Z,2.25
2023-04-14T16:20:23.950Z,2.25
2023-04-14T16:22:27.914Z,2.19
2023-04-14T16:24:30.933Z,2.15
2023-04-14T16:26:33.818Z,2.11
2023-04-14T16:28:36.570Z,2.07
2023-04-14T16:30:39.348Z,2.04
2023-04-14T16:32:42.287Z,1.94
2023-04-14T16:34:45.020Z,1.86
2023-04-14T16:36:48.188Z,1.81
2023-04-14T16:38:51.151Z,1.76
2023-04-14T16:40:57.902Z,1.71
2023-04-14T16:43:00.753Z,1.74
2023-04-14T16:45:03.536Z,1.73
2023-04-14T16:47:06.525Z,1.69
2023-04-14T16:49:09.180Z,1.59
2023-04-14T16:51:11.960Z,1.60
2023-04-14T16:53:14.706Z,1.58
2023-04-14T16:55:17.580Z,1.54
2023-04-14T16:57:20.682Z,1.54
2023-04-14T16:59:23.396Z,1.45
2023-04-14T17:01:27.018Z,1.35
2023-04-14T17:03:30.063Z,1.37
2023-04-14T17:05:33.065Z,1.32
2023-04-14T17:07:35.858Z,1.25
2023-04-14T17:09:38.715Z,1.27
2023-04-14T17:11:42.697Z,1.20
2023-04-14T17:13:45.641Z,1.17
2023-04-14T17:15:58.800Z,1.19
2023-04-14T17:18:11.401Z,1.07
2023-04-14T17:20:15.611Z,1.10
2023-04-14T17:22:18.623Z,1.12
2023-04-14T17:24:21.415Z,1.02
2023-04-14T17:26:25.008Z,0.97
2023-04-14T17:28:27.904Z,0.92
2023-04-14T17:30:32.595Z,0.89
2023-04-14T17:32:35.376Z,0.82
2023-04-14T17:34:38.290Z,0.76
2023-04-14T17:36:41.079Z,0.79
2023-04-14T17:38:44.819Z,0.77
2023-04-14T17:40:47.601Z,0.68
2023-04-14T17:42:50.475Z,0.62
2023-04-14T17:44:53.559Z,0.53
2023-04-14T17:47:01.089Z,0.54
2023-04-14T17:49:04.213Z,0.46
2023-04-14T17:51:07.529Z,0.48
2023-04-14T17:53:10.508Z,0.40
2023-04-14T17:55:14.077Z,0.34
2023-04-14T17:57:17.421Z,0.33
2023-04-14T17:59:20.979Z,0.28
2023-04-14T18:01:24.298Z,0.24
2023-04-14T18:03:27.690Z,0.29
2023-04-14T18:05:30.536Z,0.30
2023-04-14T18:07:33.687Z,0.29
2023-04-14T18:09:36.437Z,0.33
2023-04-14T18:11:39.163Z,0.29
2023-04-14T18:13:41.890Z,0.26
2023-04-14T18:15:44.765Z,0.22
2023-04-14T18:17:48.030Z,0.13
2023-04-14T18:19:50.877Z,0.04
2023-04-14T18:21:53.599Z,-0.03
2023-04-14T18:28:08.545Z,-0.06
2023-04-14T18:30:11.518Z,-0.07
2023-04-14T18:32:14.741Z,-0.08
2023-04-14T18:34:17.787Z,-0.13
2023-04-14T18:36:20.594Z,-0.19
2023-04-14T18:38:24.530Z,-0.19
2023-04-14T18:40:27.781Z,-0.17
2023-04-14T18:42:31.720Z,-0.26
2023-04-14T18:44:34.617Z,-0.27
2023-04-14T18:46:38.144Z,-0.21
2023-04-14T18:48:41.355Z,-0.23
2023-04-14T18:50:44.972Z,-0.27
2023-04-14T18:52:47.747Z,-0.28
2023-04-14T18:54:50.598Z,-0.36
2023-04-14T18:56:53.385Z,-0.45
2023-04-14T18:58:57.729Z,-0.50
2023-04-14T19:01:00.418Z,-0.54
2023-04-14T19:03:04.772Z,-0.57
2023-04-14T19:05:08.400Z,-0.48
2023-04-14T19:07:11.603Z,-0.50
2023-04-14T19:09:14.566Z,-0.55
2023-04-14T19:11:17.261Z,-0.68
2023-04-14T19:13:19.984Z,-0.69
2023-04-14T19:15:22.773Z,-0.65
2023-04-14T19:17:25.479Z,-0.78
2023-04-14T19:19:28.132Z,-0.72
2023-04-14T19:21:31.249Z,-0.76
2023-04-14T19:23:34.302Z,-0.81
2023-04-14T19:25:38.859Z,-0.84
2023-04-14T19:27:43.313Z,-0.87
2023-04-14T19:29:46.349Z,-0.88
2023-04-14T19:31:49.100Z,-0.92
2023-04-14T19:33:51.870Z,-0.95
2023-04-14T19:35:54.541Z,-1.05
2023-04-14T19:37:58.095Z,-1.03
2023-04-14T19:40:01.703Z,-1.05
2023-04-14T19:42:05.753Z,-1.11
2023-04-14T19:44:08.713Z,-1.18
2023-04-14T19:46:13.408Z,-1.15
2023-04-14T19:48:23.524Z,-1.16
2023-04-14T19:50:26.911Z,-1.18
2023-04-14T19:52:29.993Z,-1.17
2023-04-14T19:54:32.730Z,-1.23
2023-04-14T19:56:35.685Z,-1.29
2023-04-14T19:58:38.401Z,-1.36
2023-04-14T20:00:41.221Z,-1.38
2023-04-14T20:02:45.151Z,-1.39
2023-04-14T20:04:48.522Z,-1.41
2023-04-14T20:06:51.297Z,-1.44
2023-04-14T20:08:54.103Z,-1.43
2023-04-14T20:10:57.026Z,-1.44
2023-04-14T20:12:59.733Z,-1.44
2023-04-14T20:15:03.515Z,-1.47
2023-04-14T20:17:06.621Z,-1.55
2023-04-14T20:19:09.679Z,-1.56
2023-04-14T20:21:13.918Z,-1.60
2023-04-14T20:23:17.284Z,-1.62
2023-04-14T20:25:20.073Z,-1.63
2023-04-14T20:27:23.947Z,-1.70
2023-04-14T20:29:26.823Z,-1.71
2023-04-14T20:31:29.588Z,-1.71
2023-04-14T20:33:32.649Z,-1.70
2023-04-14T20:35:36.851Z,-1.70
2023-04-14T20:37:39.592Z,-1.77
2023-04-14T20:39:42.767Z,-1.83
2023-04-14T20:41:46.641Z,-1.80
2023-04-14T20:43:49.454Z,-1.81
2023-04-14T20:45:53.349Z,-1.82
2023-04-14T20:47:56.672Z,-1.82
2023-04-14T20:49:59.486Z,-1.87
2023-04-14T20:52:02.366Z,-1.93
2023-04-14T20:54:05.195Z,-1.90
2023-04-14T20:56:07.853Z,-1.91
2023-04-14T20:58:10.955Z,-1.93
2023-04-14T21:00:19.090Z,-1.97
2023-04-14T21:02:22.660Z,-1.95
2023-04-14T21:04:26.176Z,-1.97
2023-04-14T21:06:32.414Z,-1.99
2023-04-14T21:08:35.635Z,-2.03
2023-04-14T21:11:14.465Z,-2.06
2023-04-14T21:15:39.876Z,-2.07
2023-04-14T21:15:50.387Z,-2.11
2023-04-14T21:17:50.644Z,-2.15
2023-04-14T21:19:53.895Z,-2.15
2023-04-14T21:21:56.587Z,-2.15
2023-04-14T21:23:59.487Z,-2.17
2023-04-14T21:26:02.135Z,-2.21
2023-04-14T21:28:05.062Z,-2.21
2023-04-14T21:30:12.211Z,-2.20
2023-04-14T21:32:17.916Z,-2.22
2023-04-14T21:34:20.838Z,-2.19
2023-04-14T21:36:23.625Z,-2.21
2023-04-14T21:38:26.508Z,-2.29
2023-04-14T21:40:29.786Z,-2.30
2023-04-14T21:42:32.854Z,-2.28
2023-04-14T21:44:35.824Z,-2.31
2023-04-14T21:46:38.527Z,-2.35
2023-04-14T21:48:41.310Z,-2.36
2023-04-14T21:50:44.015Z,-2.40
2023-04-14T21:52:47.345Z,-2.42
2023-04-14T21:54:50.963Z,-2.44
2023-04-14T21:56:53.967Z,-2.46
2023-04-14T21:58:56.612Z,-2.50
2023-04-14T22:01:00.514Z,-2.49
2023-04-14T22:03:03.411Z,-2.51
2023-04-14T22:05:07.323Z,-2.51
2023-04-14T22:07:10.074Z,-2.54
2023-04-14T22:09:12.890Z,-2.58
2023-04-14T22:11:16.333Z,-2.62
2023-04-14T22:13:19.148Z,-2.62
2023-04-14T22:15:22.561Z,-2.60
2023-04-14T22:17:25.911Z,-2.62
2023-04-14T22:19:29.004Z,-2.64
2023-04-14T22:21:31.818Z,-2.61
2023-04-14T22:23:34.509Z,-2.65
2023-04-14T22:25:38.199Z,-2.64
2023-04-14T22:27:40.956Z,-2.67
2023-04-14T22:29:43.654Z,-2.74
2023-04-14T22:31:46.798Z,-2.75
2023-04-14T22:33:49.552Z,-2.74
2023-04-14T22:35:53.824Z,-2.78
2023-04-14T22:37:56.539Z,-2.71
2023-04-14T22:40:02.217Z,-2.71
2023-04-14T22:42:06.367Z,-2.78
2023-04-14T22:44:09.011Z,-2.85
2023-04-14T22:46:12.008Z,-2.84
2023-04-14T22:48:14.995Z,-2.82
2023-04-14T22:50:17.892Z,-2.85
2023-04-14T22:52:21.118Z,-2.85
2023-04-14T22:54:23.761Z,-2.91
2023-04-14T22:56:27.671Z,-2.92
2023-04-14T22:58:39.229Z,-2.96
2023-04-14T23:00:42.329Z,-2.97
2023-04-14T23:02:45.654Z,-2.94
2023-04-14T23:04:48.576Z,-2.94
2023-04-14T23:06:51.344Z,-2.99
2023-04-14T23:08:53.977Z,-2.97
2023-04-14T23:10:57.183Z,-2.99
2023-04-14T23:13:00.045Z,-3.00
2023-04-14T23:15:04.431Z,-3.05
2023-04-14T23:17:07.165Z,-3.07
2023-04-14T23:19:10.943Z,-3.13
2023-04-14T23:21:13.643Z,-3.09
2023-04-14T23:23:16.338Z,-3.15
2023-04-14T23:25:19.015Z,-3.16
2023-04-14T23:27:22.125Z,-3.19
2023-04-14T23:29:24.760Z,-3.17
2023-04-14T23:31:30.396Z,-3.11
2023-04-14T23:33:33.072Z,-3.15
2023-04-14T23:35:36.646Z,-3.22
2023-04-14T23:37:39.379Z,-3.22
2023-04-14T23:39:42.231Z,-3.23
2023-04-14T23:41:44.913Z,-3.23
2023-04-14T23:43:49.716Z,-3.23
2023-04-14T23:45:52.759Z,-3.16
2023-04-14T23:47:55.612Z,-3.14
2023-04-14T23:49:58.381Z,-3.19
2023-04-14T23:52:01.217Z,-3.28
2023-04-14T23:54:03.969Z,-3.26
2023-04-14T23:56:07.213Z,-3.32
2023-04-14T23:58:09.876Z,-3.34
